createdAt,value
2018-11-23T00:04:39.565Z,50.43
2018-11-23T00:09:43.985Z,41.57
2018-11-23T00:14:48.807Z,44.13
2018-11-23T00:19:53.260Z,42.00
2018-11-23T00:24:57.174Z,45.23
2018-11-23T00:30:01.859Z,46.73
2018-11-23T00:35:08.330Z,45.05
2018-11-23T00:40:14.576Z,51.42
2018-11-23T00:45:18.709Z,46.27
2018-11-23T00:50:23.639Z,47.90
2018-11-23T00:55:28.101Z,54.53
2018-11-23T01:00:33.023Z,46.07
2018-11-23T01:05:36.894Z,45.67
2018-11-23T01:10:40.761Z,48.27
2018-11-23T01:15:44.817Z,44.47
2018-11-23T01:20:48.622Z,44.87
2018-11-23T01:25:52.631Z,46.37
2018-11-23T01:30:56.553Z,45.13
2018-11-23T01:36:00.634Z,46.60
2018-11-23T01:41:05.350Z,48.67
2018-11-23T01:46:09.295Z,43.53
2018-11-23T01:51:13.189Z,45.80
2018-11-23T01:56:18.189Z,48.07
2018-11-23T02:01:22.150Z,42.77
2018-11-23T02:06:26.116Z,46.27
2018-11-23T02:11:29.941Z,46.17
2018-11-23T02:16:33.823Z,45.80
2018-11-23T02:21:37.908Z,46.43
2018-11-23T02:26:42.127Z,46.30
2018-11-23T02:31:46.072Z,47.40
2018-11-23T02:36:50.057Z,42.40
2018-11-23T02:41:54.982Z,44.10
2018-11-23T02:46:58.919Z,45.27
2018-11-23T02:52:02.900Z,48.33
2018-11-23T02:57:12.212Z,45.67
2018-11-23T03:02:16.587Z,43.53
2018-11-23T03:07:20.701Z,46.43
2018-11-23T03:12:25.048Z,46.07
2018-11-23T03:17:29.082Z,46.33
2018-11-23T03:22:33.704Z,43.97
2018-11-23T03:27:37.824Z,44.70
2018-11-23T03:32:41.920Z,46.90
2018-11-23T03:37:46.084Z,49.30
2018-11-23T03:42:50.086Z,44.03
2018-11-23T03:47:53.984Z,40.97
2018-11-23T03:52:59.190Z,48.10
2018-11-23T03:58:03.161Z,43.40
2018-11-23T04:03:07.032Z,42.00
2018-11-23T04:08:11.161Z,40.53
2018-11-23T04:13:16.092Z,42.90
2018-11-23T04:18:20.163Z,41.73
2018-11-23T04:23:24.226Z,41.47
2018-11-23T04:28:28.178Z,36.70
2018-11-23T04:33:32.202Z,43.80
2018-11-23T04:38:36.375Z,42.13
2018-11-23T04:43:40.866Z,40.90
2018-11-23T04:48:50.259Z,41.60
2018-11-23T04:54:06.331Z,42.33
2018-11-23T04:59:10.463Z,47.23
2018-11-23T05:04:14.481Z,39.90
2018-11-23T05:09:18.415Z,38.30
2018-11-23T05:14:22.547Z,38.73
2018-11-23T05:19:27.018Z,36.90
2018-11-23T05:24:31.180Z,36.83
2018-11-23T05:29:35.402Z,42.00
2018-11-23T05:34:40.804Z,36.37
2018-11-23T05:39:46.063Z,39.60
2018-11-23T05:44:50.142Z,36.90
2018-11-23T05:49:53.999Z,35.93
2018-11-23T05:54:58.056Z,37.60
2018-11-23T06:00:02.748Z,37.87
2018-11-23T06:05:07.032Z,38.97
2018-11-23T06:10:13.952Z,39.30
2018-11-23T06:15:19.895Z,35.40
2018-11-23T06:20:25.281Z,36.73
2018-11-23T06:25:43.356Z,35.67
2018-11-23T06:30:48.255Z,38.83
2018-11-23T06:35:52.393Z,32.73
2018-11-23T06:40:57.191Z,38.08
2018-11-23T06:46:02.179Z,36.63
2018-11-23T06:51:06.577Z,33.67
2018-11-23T06:56:10.920Z,32.13
2018-11-23T07:01:14.974Z,37.17
2018-11-23T07:06:19.865Z,31.73
2018-11-23T07:11:25.398Z,34.13
2018-11-23T07:16:29.839Z,31.80
2018-11-23T07:21:34.014Z,31.53
2018-11-23T07:26:39.511Z,30.60
2018-11-23T07:31:44.488Z,30.63
2018-11-23T07:36:48.407Z,33.70
2018-11-23T07:42:03.262Z,28.50
2018-11-23T07:47:06.874Z,29.17
2018-11-23T07:52:10.530Z,25.63
2018-11-23T07:57:14.067Z,30.60
2018-11-23T08:02:17.516Z,33.60
2018-11-23T08:07:21.193Z,31.40
2018-11-23T08:12:25.569Z,30.40
2018-11-23T08:17:28.968Z,27.13
2018-11-23T08:22:33.337Z,24.27
2018-11-23T08:27:36.893Z,25.10
2018-11-23T08:32:40.973Z,20.37
2018-11-23T08:37:45.026Z,21.57
2018-11-23T08:42:49.616Z,24.53
2018-11-23T08:47:54.583Z,21.10
2018-11-23T08:52:58.828Z,23.90
2018-11-23T08:58:03.468Z,23.50
2018-11-23T09:03:07.427Z,29.30
2018-11-23T09:08:11.168Z,23.37
2018-11-23T09:13:15.165Z,24.73
2018-11-23T09:18:19.100Z,22.50
2018-11-23T09:23:22.717Z,23.80
2018-11-23T09:28:26.344Z,16.93
2018-11-23T09:33:29.691Z,19.03
2018-11-23T09:38:32.999Z,15.60
2018-11-23T09:43:36.293Z,12.63
2018-11-23T09:48:39.633Z,14.87
2018-11-23T09:53:42.939Z,13.00
2018-11-23T09:58:46.262Z,10.20
2018-11-23T10:03:50.172Z,11.53
2018-11-23T10:08:54.159Z,9.90
2018-11-23T10:13:57.465Z,9.60
2018-11-23T10:19:00.820Z,11.93
2018-11-23T10:24:04.628Z,13.90
2018-11-23T10:29:08.394Z,12.40
2018-11-23T10:34:11.757Z,13.43
2018-11-23T10:39:15.634Z,11.73
2018-11-23T10:44:19.025Z,13.53
2018-11-23T10:49:22.365Z,11.93
2018-11-23T10:54:25.773Z,12.73
2018-11-23T10:59:39.875Z,12.37
2018-11-23T11:04:48.161Z,12.50
2018-11-23T11:09:51.661Z,12.73
2018-11-23T11:14:55.079Z,10.60
2018-11-23T11:19:59.337Z,12.13
2018-11-23T11:25:04.396Z,11.50
2018-11-23T11:30:11.540Z,12.40
2018-11-23T11:35:15.139Z,11.27
2018-11-23T11:40:19.591Z,11.65
2018-11-23T11:45:23.297Z,11.73
2018-11-23T11:50:26.635Z,11.43
2018-11-23T11:55:30.014Z,11.50
2018-11-23T12:00:33.371Z,12.17
2018-11-23T12:05:36.737Z,12.70
2018-11-23T12:12:23.261Z,12.37
2018-11-23T12:17:26.618Z,12.03
2018-11-23T12:22:29.939Z,11.87
2018-11-23T12:27:33.432Z,12.37
2018-11-23T12:32:37.089Z,14.13
2018-11-23T12:37:40.849Z,15.83
2018-11-23T12:42:44.694Z,11.90
2018-11-23T12:47:48.067Z,11.27
2018-11-23T12:52:51.470Z,15.00
2018-11-23T12:57:54.811Z,12.10
2018-11-23T13:03:00.496Z,13.73
2018-11-23T13:08:05.584Z,13.07
2018-11-23T13:13:09.008Z,12.43
2018-11-23T13:18:12.514Z,13.77
2018-11-23T13:23:16.052Z,13.13
2018-11-23T13:28:19.586Z,13.77
2018-11-23T13:33:23.196Z,12.63
2018-11-23T13:38:26.854Z,16.13
2018-11-23T13:43:30.236Z,13.97
2018-11-23T13:48:33.697Z,15.77
2018-11-23T13:53:37.148Z,14.37
2018-11-23T13:58:40.482Z,14.83
2018-11-23T14:03:43.935Z,18.17
2018-11-23T14:08:47.386Z,19.83
2018-11-23T14:13:50.804Z,16.40
2018-11-23T14:18:54.167Z,15.83
2018-11-23T14:23:57.503Z,13.83
2018-11-23T14:29:00.820Z,15.30
2018-11-23T14:34:04.301Z,14.63
2018-11-23T14:39:09.177Z,14.80
2018-11-23T14:44:12.617Z,12.93
2018-11-23T14:49:16.119Z,23.80
2018-11-23T14:54:19.648Z,17.27
2018-11-23T14:59:23.054Z,15.70
2018-11-23T15:04:26.902Z,15.03
2018-11-23T15:09:30.296Z,14.97
2018-11-23T15:14:33.911Z,17.63
2018-11-23T15:19:37.554Z,14.33
2018-11-23T15:24:40.917Z,18.73
2018-11-23T15:29:44.230Z,19.30
2018-11-23T15:34:47.894Z,19.03
2018-11-23T15:39:51.434Z,18.93
2018-11-23T15:44:54.816Z,21.00
2018-11-23T15:49:58.128Z,18.13
2018-11-23T15:55:01.669Z,20.27
2018-11-23T16:00:09.434Z,17.20
2018-11-23T16:05:13.302Z,20.67
2018-11-23T16:10:20.049Z,21.10
2018-11-23T16:15:23.943Z,24.57
2018-11-23T16:20:29.832Z,33.40
2018-11-23T16:25:33.324Z,24.97
2018-11-23T16:30:39.327Z,25.47
2018-11-23T16:35:43.380Z,23.83
2018-11-23T16:40:48.637Z,30.77
2018-11-23T16:45:52.018Z,28.40
2018-11-23T16:50:55.395Z,24.60
2018-11-23T16:55:58.858Z,22.87
2018-11-23T17:01:02.387Z,24.13
2018-11-23T17:06:05.949Z,27.57
2018-11-23T17:11:09.304Z,23.80
2018-11-23T17:16:12.617Z,23.53
2018-11-23T17:21:16.048Z,23.20
2018-11-23T17:26:19.656Z,22.00
2018-11-23T17:31:23.062Z,37.10
2018-11-23T17:36:26.518Z,36.33
2018-11-23T17:41:29.873Z,37.40
2018-11-23T17:46:33.340Z,31.60
2018-11-23T17:51:36.815Z,30.43
2018-11-23T17:56:40.363Z,25.30
2018-11-23T18:01:43.856Z,34.70
2018-11-23T18:06:47.275Z,26.60
2018-11-23T18:11:50.656Z,28.43
2018-11-23T18:16:54.375Z,28.00
2018-11-23T18:21:57.861Z,24.60
2018-11-23T18:27:01.331Z,27.07
2018-11-23T18:32:04.719Z,29.30
2018-11-23T18:37:08.131Z,32.07
2018-11-23T18:42:11.693Z,27.97
2018-11-23T18:47:15.472Z,24.73
2018-11-23T18:52:20.672Z,22.50
2018-11-23T18:57:24.343Z,22.40
2018-11-23T19:02:27.840Z,20.97
2018-11-23T19:07:31.544Z,24.60
2018-11-23T19:12:34.867Z,19.93
2018-11-23T19:17:38.172Z,26.47
2018-11-23T19:22:42.477Z,22.90
2018-11-23T19:27:46.063Z,26.33
2018-11-23T19:32:49.600Z,23.63
2018-11-23T19:37:53.212Z,25.63
2018-11-23T19:42:56.670Z,25.00
2018-11-23T19:48:00.136Z,25.63
2018-11-23T19:53:03.644Z,22.80
2018-11-23T19:58:08.096Z,21.27
2018-11-23T20:03:11.807Z,25.37
2018-11-23T20:08:15.140Z,23.77
2018-11-23T20:13:18.518Z,20.63
2018-11-23T20:18:21.934Z,19.03
2018-11-23T20:23:25.248Z,21.43
2018-11-23T20:28:28.588Z,21.47
2018-11-23T20:33:32.065Z,19.47
2018-11-23T20:38:35.384Z,22.70
2018-11-23T20:43:39.660Z,22.90
2018-11-23T20:48:43.075Z,20.83
2018-11-23T20:53:46.390Z,20.93
2018-11-23T20:58:49.895Z,18.57
2018-11-23T21:03:53.372Z,19.00
2018-11-23T21:08:56.691Z,19.33
2018-11-23T21:14:00.208Z,24.50
2018-11-23T21:19:03.799Z,20.70
2018-11-23T21:24:15.505Z,21.40
2018-11-23T21:29:19.219Z,18.83
2018-11-23T21:34:22.879Z,17.90
2018-11-23T21:39:27.461Z,20.87
2018-11-23T21:44:31.195Z,17.83
2018-11-23T21:49:34.647Z,17.83
2018-11-23T21:54:38.301Z,19.37
2018-11-23T21:59:43.088Z,19.67
2018-11-23T22:04:46.747Z,20.60
2018-11-23T22:09:50.208Z,18.33
2018-11-23T22:14:53.966Z,20.67
2018-11-23T22:19:57.623Z,17.60
2018-11-23T22:25:01.385Z,18.40
2018-11-23T22:30:10.625Z,17.82
2018-11-23T22:35:14.412Z,19.83
2018-11-23T22:40:19.091Z,20.90
2018-11-23T22:45:23.236Z,17.50
2018-11-23T22:50:27.081Z,18.37
2018-11-23T22:55:30.741Z,20.50
2018-11-23T23:00:41.377Z,27.20
2018-11-23T23:05:45.100Z,23.67
2018-11-23T23:10:48.488Z,24.57
2018-11-23T23:15:52.021Z,24.97
2018-11-23T23:20:55.649Z,22.23
2018-11-23T23:26:00.119Z,23.33
2018-11-23T23:31:05.501Z,21.63
2018-11-23T23:36:11.444Z,23.23
2018-11-23T23:41:15.044Z,22.60
2018-11-23T23:46:18.599Z,22.60
2018-11-23T23:51:22.088Z,22.10
2018-11-23T23:56:25.459Z,20.83
